Time;durP1;ratioP1;P1;durP2;ratioP2;P2;SDS_P1;SDS_P2;PMS_P1;PMS_P2;Temp;Humidity;BMP_temperature;BMP_pressure;BME280_temperature;BME280_humidity;BME280_pressure;Samples;Min_cycle;Max_cycle;Signal;HPM_P1;HPM_P2
2021/06/18 00:01:14;;;;;;;3.47;2.58;;;;;;;;;;5000022;28;20038;-86
2021/06/18 00:03:40;;;;;;;3.10;2.72;;;;;;;;;;4987112;28;20425;-86
2021/06/18 00:06:08;;;;;;;5.45;3.63;;;;;;;;;;4978746;28;20062;-86
2021/06/18 00:08:36;;;;;;;4.30;3.33;;;;;;;;;;4976544;28;20058;-86
2021/06/18 00:11:04;;;;;;;3.50;2.78;;;;;;;;;;4988109;28;20065;-85
2021/06/18 00:13:31;;;;;;;5.60;3.80;;;;;;;;;;4992482;28;20134;-85
2021/06/18 00:15:57;;;;;;;6.07;3.03;;;;;;;;;;4988589;28;20043;-84
2021/06/18 00:18:24;;;;;;;5.43;3.20;;;;;;;;;;4992849;28;20042;-84
2021/06/18 00:20:50;;;;;;;4.45;3.35;;;;;;;;;;4995880;28;20491;-84
2021/06/18 00:23:18;;;;;;;4.03;3.10;;;;;;;;;;4986648;28;20051;-84
2021/06/18 00:25:45;;;;;;;4.47;3.00;;;;;;;;;;4981041;28;20085;-84
2021/06/18 00:28:13;;;;;;;4.60;3.33;;;;;;;;;;4989760;28;20523;-84
2021/06/18 00:30:39;;;;;;;4.22;2.92;;;;;;;;;;4994735;28;20069;-86
2021/06/18 00:33:06;;;;;;;3.50;2.75;;;;;;;;;;4986124;28;20043;-86
2021/06/18 00:35:33;;;;;;;4.55;3.15;;;;;;;;;;4988723;28;20491;-85
2021/06/18 00:37:59;;;;;;;6.07;3.78;;;;;;;;;;4985132;28;20058;-85
2021/06/18 00:40:28;;;;;;;5.05;3.10;;;;;;;;;;4976119;28;20102;-85
2021/06/18 00:42:54;;;;;;;5.10;3.42;;;;;;;;;;4995037;28;20111;-85
2021/06/18 00:45:21;;;;;;;5.22;3.58;;;;;;;;;;4974205;28;20043;-84
2021/06/18 00:47:51;;;;;;;3.88;3.05;;;;;;;;;;4995708;28;20061;-83
2021/06/18 00:50:19;;;;;;;4.95;3.38;;;;;;;;;;4995622;28;20046;-85
2021/06/18 00:52:45;;;;;;;4.53;3.33;;;;;;;;;;4991460;28;20050;-84
2021/06/18 00:55:12;;;;;;;4.80;3.22;;;;;;;;;;4998257;28;20077;-85
2021/06/18 00:57:40;;;;;;;4.45;3.35;;;;;;;;;;4999248;28;20046;-84
2021/06/18 01:00:10;;;;;;;5.05;3.67;;;;;;;;;;4986382;28;20043;-84
2021/06/18 01:02:36;;;;;;;5.90;3.15;;;;;;;;;;4996604;28;20047;-86
2021/06/18 01:05:04;;;;;;;4.20;2.88;;;;;;;;;;4989697;28;20671;-84
2021/06/18 01:07:32;;;;;;;4.97;3.30;;;;;;;;;;4998908;28;20059;-85
2021/06/18 01:10:10;;;;;;;6.38;3.47;;;;;;;;;;4992059;28;20077;-84
2021/06/18 01:12:38;;;;;;;4.80;3.40;;;;;;;;;;4995146;28;20514;-86
2021/06/18 01:15:10;;;;;;;3.65;2.72;;;;;;;;;;4993353;28;20046;-84
2021/06/18 01:17:45;;;;;;;5.78;3.50;;;;;;;;;;4998732;28;20043;-86
2021/06/18 01:20:40;;;;;;;5.60;3.20;;;;;;;;;;4997145;28;20051;-85
2021/06/18 01:23:18;;;;;;;5.65;3.60;;;;;;;;;;5001533;28;20062;-85
2021/06/18 01:25:47;;;;;;;4.03;3.20;;;;;;;;;;5002947;28;20046;-84
2021/06/18 01:28:34;;;;;;;4.43;3.30;;;;;;;;;;5001199;28;20129;-85
2021/06/18 01:31:01;;;;;;;3.63;2.95;;;;;;;;;;5001793;28;20056;-85
2021/06/18 01:33:30;;;;;;;7.68;3.75;;;;;;;;;;4985037;28;20443;-85
2021/06/18 01:35:59;;;;;;;3.60;3.20;;;;;;;;;;5001895;28;20042;-86
2021/06/18 01:38:27;;;;;;;6.18;4.25;;;;;;;;;;4983686;28;20047;-85
2021/06/18 01:40:57;;;;;;;6.45;4.00;;;;;;;;;;4984074;28;20383;-85
2021/06/18 01:43:28;;;;;;;4.88;3.35;;;;;;;;;;5002164;28;20050;-84
2021/06/18 01:45:56;;;;;;;6.00;3.92;;;;;;;;;;5001204;28;20050;-84
2021/06/18 01:48:24;;;;;;;4.57;3.15;;;;;;;;;;4997466;28;20042;-84
2021/06/18 01:50:52;;;;;;;4.57;3.83;;;;;;;;;;4999648;28;20070;-84
2021/06/18 01:53:20;;;;;;;6.97;3.50;;;;;;;;;;4980359;28;20049;-84
2021/06/18 01:55:48;;;;;;;4.45;3.28;;;;;;;;;;4996408;28;20076;-84
2021/06/18 01:58:17;;;;;;;4.60;3.65;;;;;;;;;;5001594;28;20046;-85
2021/06/18 02:00:46;;;;;;;4.90;3.92;;;;;;;;;;5002411;28;20053;-85
2021/06/18 02:03:15;;;;;;;4.50;3.40;;;;;;;;;;5003174;28;20057;-84
2021/06/18 02:05:43;;;;;;;4.72;4.10;;;;;;;;;;4985558;28;20054;-85
2021/06/18 02:08:11;;;;;;;3.90;3.30;;;;;;;;;;5000417;28;20051;-85
2021/06/18 02:10:40;;;;;;;6.03;3.63;;;;;;;;;;5001848;28;20046;-86
2021/06/18 02:13:07;;;;;;;5.63;3.72;;;;;;;;;;5003232;28;20042;-85
2021/06/18 02:15:35;;;;;;;4.45;3.42;;;;;;;;;;5003198;28;20398;-84
2021/06/18 02:18:05;;;;;;;5.85;4.18;;;;;;;;;;5000955;28;20051;-85
2021/06/18 02:20:32;;;;;;;6.35;3.22;;;;;;;;;;5003494;28;20050;-83
2021/06/18 02:22:59;;;;;;;4.93;3.85;;;;;;;;;;4986473;28;20062;-85
2021/06/18 02:25:26;;;;;;;5.35;3.80;;;;;;;;;;5003420;28;20050;-83
2021/06/18 02:27:54;;;;;;;4.07;3.17;;;;;;;;;;4985996;28;20054;-84
2021/06/18 02:30:22;;;;;;;5.13;3.88;;;;;;;;;;5003484;28;20502;-83
2021/06/18 02:32:50;;;;;;;3.70;3.15;;;;;;;;;;4987340;28;20476;-84
2021/06/18 02:35:18;;;;;;;7.80;4.72;;;;;;;;;;5004419;28;20046;-85
2021/06/18 02:37:45;;;;;;;4.80;3.60;;;;;;;;;;5004124;28;20047;-86
2021/06/18 02:40:12;;;;;;;5.13;3.70;;;;;;;;;;5003393;28;20498;-83
2021/06/18 02:42:39;;;;;;;6.53;4.15;;;;;;;;;;5001641;28;20049;-85
2021/06/18 02:45:06;;;;;;;4.38;3.53;;;;;;;;;;5001692;28;20050;-84
2021/06/18 02:47:38;;;;;;;5.72;3.55;;;;;;;;;;4996924;28;20108;-84
2021/06/18 02:50:09;;;;;;;7.10;3.67;;;;;;;;;;5001309;28;20050;-86
2021/06/18 02:52:43;;;;;;;6.50;3.97;;;;;;;;;;5002372;28;20054;-84
2021/06/18 02:55:12;;;;;;;4.05;3.55;;;;;;;;;;4998800;28;20410;-83
2021/06/18 02:57:42;;;;;;;5.75;3.85;;;;;;;;;;5001293;28;20431;-86
2021/06/18 03:00:11;;;;;;;6.15;4.32;;;;;;;;;;4999929;28;20043;-86
2021/06/18 03:02:43;;;;;;;7.43;3.83;;;;;;;;;;4999976;28;20042;-85
2021/06/18 03:05:12;;;;;;;5.80;4.07;;;;;;;;;;4999902;28;20077;-85
2021/06/18 03:07:43;;;;;;;6.13;3.88;;;;;;;;;;4999757;28;20051;-84
2021/06/18 03:10:15;;;;;;;7.03;4.35;;;;;;;;;;4999540;28;20101;-85
2021/06/18 03:12:43;;;;;;;7.28;4.15;;;;;;;;;;5001115;28;20173;-85
2021/06/18 03:15:10;;;;;;;7.20;4.03;;;;;;;;;;4998732;28;20053;-85
2021/06/18 03:17:39;;;;;;;5.18;3.80;;;;;;;;;;4996444;28;20046;-85
2021/06/18 03:20:09;;;;;;;5.13;3.90;;;;;;;;;;4997517;28;20042;-85
2021/06/18 03:22:37;;;;;;;6.13;3.53;;;;;;;;;;4995777;28;20057;-84
2021/06/18 03:25:07;;;;;;;7.45;4.25;;;;;;;;;;4999606;28;20061;-86
2021/06/18 03:27:35;;;;;;;6.93;4.65;;;;;;;;;;4999541;28;20050;-86
2021/06/18 03:30:02;;;;;;;7.97;4.45;;;;;;;;;;4998436;28;20058;-86
2021/06/18 03:32:29;;;;;;;8.85;4.13;;;;;;;;;;5000428;28;20054;-85
2021/06/18 03:34:55;;;;;;;6.68;3.75;;;;;;;;;;4983606;28;20050;-88
2021/06/18 03:37:22;;;;;;;7.72;4.30;;;;;;;;;;4984123;28;20065;-86
2021/06/18 03:39:49;;;;;;;6.00;4.10;;;;;;;;;;4997187;28;20054;-85
2021/06/18 03:42:17;;;;;;;8.85;4.38;;;;;;;;;;4982559;28;20462;-87
2021/06/18 03:44:44;;;;;;;8.45;4.05;;;;;;;;;;4981340;28;20109;-87
2021/06/18 03:47:11;;;;;;;5.72;3.28;;;;;;;;;;4982260;28;20061;-87
2021/06/18 03:49:39;;;;;;;6.03;3.63;;;;;;;;;;4998772;28;20068;-86
2021/06/18 03:52:06;;;;;;;5.28;3.42;;;;;;;;;;4997912;28;20680;-86
2021/06/18 03:54:33;;;;;;;5.93;3.83;;;;;;;;;;4999106;28;20050;-86
2021/06/18 03:57:01;;;;;;;5.50;3.75;;;;;;;;;;4987638;28;20098;-85
2021/06/18 03:59:31;;;;;;;4.95;3.65;;;;;;;;;;4997151;28;20046;-85
2021/06/18 04:01:58;;;;;;;12.95;4.07;;;;;;;;;;4981687;28;20490;-87
2021/06/18 04:04:25;;;;;;;5.90;4.20;;;;;;;;;;4981852;28;20059;-85
2021/06/18 04:06:52;;;;;;;7.97;4.20;;;;;;;;;;5000076;28;20058;-85
2021/06/18 04:09:19;;;;;;;7.80;3.90;;;;;;;;;;4980397;28;20046;-85
2021/06/18 04:11:46;;;;;;;6.32;4.38;;;;;;;;;;5000023;28;20046;-86
2021/06/18 04:14:13;;;;;;;5.78;4.70;;;;;;;;;;4999892;28;20046;-85
2021/06/18 04:16:41;;;;;;;5.10;3.63;;;;;;;;;;4984543;28;20054;-85
2021/06/18 04:19:08;;;;;;;4.43;3.63;;;;;;;;;;5001263;28;20113;-86
2021/06/18 04:21:37;;;;;;;5.25;4.22;;;;;;;;;;5002174;28;20061;-86
2021/06/18 04:24:05;;;;;;;6.05;4.53;;;;;;;;;;5003132;28;20576;-85
2021/06/18 04:26:31;;;;;;;10.55;4.60;;;;;;;;;;5000824;28;20438;-85
2021/06/18 04:28:58;;;;;;;8.05;4.93;;;;;;;;;;4997301;28;20410;-86
2021/06/18 04:31:24;;;;;;;8.68;4.88;;;;;;;;;;5000784;28;20062;-86
2021/06/18 04:33:52;;;;;;;6.15;3.67;;;;;;;;;;4999558;28;20050;-86
2021/06/18 04:36:19;;;;;;;5.38;4.13;;;;;;;;;;4999647;28;20406;-87
2021/06/18 04:38:46;;;;;;;6.43;4.13;;;;;;;;;;4990665;28;20478;-86
2021/06/18 04:41:12;;;;;;;7.93;4.43;;;;;;;;;;4978530;28;20070;-86
2021/06/18 04:43:39;;;;;;;12.75;3.95;;;;;;;;;;4990264;28;20078;-85
2021/06/18 04:46:06;;;;;;;12.35;5.28;;;;;;;;;;4997671;28;20050;-86
2021/06/18 04:48:34;;;;;;;7.55;4.40;;;;;;;;;;5000029;28;20054;-86
2021/06/18 04:51:03;;;;;;;11.48;4.50;;;;;;;;;;4999256;28;20046;-87
2021/06/18 04:53:29;;;;;;;13.00;4.63;;;;;;;;;;4998781;28;20057;-86
2021/06/18 04:55:58;;;;;;;11.25;4.47;;;;;;;;;;4997539;28;20045;-84
2021/06/18 04:58:25;;;;;;;5.82;4.30;;;;;;;;;;4975850;28;20054;-84
2021/06/18 05:00:52;;;;;;;4.97;4.30;;;;;;;;;;4981604;28;20051;-85
2021/06/18 05:03:20;;;;;;;7.55;4.18;;;;;;;;;;4976145;28;20054;-83
2021/06/18 05:05:47;;;;;;;7.13;5.30;;;;;;;;;;4964810;28;20089;-85
2021/06/18 05:08:15;;;;;;;8.50;4.97;;;;;;;;;;4990002;28;20704;-85
2021/06/18 05:10:43;;;;;;;9.30;5.00;;;;;;;;;;4999036;28;20100;-84
2021/06/18 05:13:09;;;;;;;11.23;5.10;;;;;;;;;;4988008;28;20458;-84
2021/06/18 05:15:36;;;;;;;10.85;4.65;;;;;;;;;;4968565;28;20073;-84
2021/06/18 05:18:03;;;;;;;11.80;4.65;;;;;;;;;;4988596;28;20043;-84
2021/06/18 05:20:30;;;;;;;6.72;5.00;;;;;;;;;;4984567;28;20056;-83
2021/06/18 05:22:57;;;;;;;4.97;4.22;;;;;;;;;;4991452;28;20047;-83
2021/06/18 05:25:26;;;;;;;9.77;4.90;;;;;;;;;;4992470;28;20054;-85
2021/06/18 05:27:53;;;;;;;8.02;5.45;;;;;;;;;;4988394;28;20402;-82
2021/06/18 05:30:20;;;;;;;8.65;6.03;;;;;;;;;;4981372;28;20427;-83
2021/06/18 05:32:48;;;;;;;9.85;5.43;;;;;;;;;;4990609;28;20073;-82
2021/06/18 05:35:16;;;;;;;7.60;5.35;;;;;;;;;;4984887;28;20479;-83
2021/06/18 05:37:43;;;;;;;8.10;4.63;;;;;;;;;;4978663;28;20503;-85
2021/06/18 05:40:11;;;;;;;7.28;5.15;;;;;;;;;;4997498;28;20061;-84
2021/06/18 05:42:39;;;;;;;8.70;5.47;;;;;;;;;;4996562;28;20054;-85
2021/06/18 05:45:08;;;;;;;8.05;5.85;;;;;;;;;;4980484;28;20045;-84
2021/06/18 05:47:34;;;;;;;10.25;5.93;;;;;;;;;;4977840;28;20047;-84
2021/06/18 05:50:01;;;;;;;8.52;6.53;;;;;;;;;;4974938;28;20051;-84
2021/06/18 05:52:28;;;;;;;9.13;5.45;;;;;;;;;;4944657;28;20134;-83
2021/06/18 05:54:54;;;;;;;11.35;7.18;;;;;;;;;;4977218;28;20047;-84
2021/06/18 05:57:21;;;;;;;7.25;5.72;;;;;;;;;;4985191;28;20042;-83
2021/06/18 05:59:49;;;;;;;8.80;6.30;;;;;;;;;;4976741;28;20049;-83
2021/06/18 06:02:15;;;;;;;8.80;6.07;;;;;;;;;;4996458;28;20051;-83
2021/06/18 06:04:42;;;;;;;11.07;6.93;;;;;;;;;;4998615;28;20058;-85
2021/06/18 06:07:09;;;;;;;8.50;7.15;;;;;;;;;;4997749;28;20054;-83
2021/06/18 06:09:35;;;;;;;8.60;7.47;;;;;;;;;;4972357;28;20046;-82
2021/06/18 06:12:02;;;;;;;7.65;6.85;;;;;;;;;;4988408;28;20134;-83
2021/06/18 06:14:29;;;;;;;8.65;7.00;;;;;;;;;;4987028;28;20050;-84
2021/06/18 06:16:57;;;;;;;8.85;7.43;;;;;;;;;;4980461;28;20113;-85
2021/06/18 06:19:23;;;;;;;8.55;6.82;;;;;;;;;;4995229;28;20053;-85
2021/06/18 06:21:50;;;;;;;8.27;7.05;;;;;;;;;;4994331;28;20049;-83
2021/06/18 06:24:16;;;;;;;18.60;9.45;;;;;;;;;;4947208;28;20057;-84
2021/06/18 06:26:43;;;;;;;8.90;7.38;;;;;;;;;;4977622;28;20047;-84
2021/06/18 06:29:10;;;;;;;10.10;7.63;;;;;;;;;;4976578;28;20055;-83
2021/06/18 06:31:37;;;;;;;10.07;8.23;;;;;;;;;;4979962;28;20065;-83
2021/06/18 06:34:05;;;;;;;11.95;7.05;;;;;;;;;;4998853;28;20047;-84
2021/06/18 06:36:31;;;;;;;10.45;6.93;;;;;;;;;;4998399;28;20576;-84
2021/06/18 06:38:58;;;;;;;7.75;6.95;;;;;;;;;;4995079;28;20043;-82
2021/06/18 06:41:24;;;;;;;10.90;6.68;;;;;;;;;;4994992;28;20489;-82
2021/06/18 06:43:51;;;;;;;10.45;7.47;;;;;;;;;;4983746;28;20053;-84
2021/06/18 06:46:20;;;;;;;9.02;6.72;;;;;;;;;;4987596;28;20046;-84
2021/06/18 06:48:46;;;;;;;11.27;7.57;;;;;;;;;;4991876;28;20038;-82
2021/06/18 06:51:14;;;;;;;7.75;6.65;;;;;;;;;;4991289;28;20053;-83
2021/06/18 06:53:41;;;;;;;8.25;5.93;;;;;;;;;;4996338;28;20054;-83
2021/06/18 06:56:07;;;;;;;13.55;6.10;;;;;;;;;;4979737;28;20058;-84
2021/06/18 06:58:34;;;;;;;5.93;5.18;;;;;;;;;;4993396;28;20509;-83
2021/06/18 07:01:00;;;;;;;6.05;5.20;;;;;;;;;;4990710;28;20125;-83
2021/06/18 07:03:28;;;;;;;8.27;5.13;;;;;;;;;;4992690;28;20556;-84
2021/06/18 07:05:54;;;;;;;9.05;5.28;;;;;;;;;;4981773;28;20403;-83
2021/06/18 07:08:23;;;;;;;10.57;5.43;;;;;;;;;;4984881;28;20126;-82
2021/06/18 07:10:50;;;;;;;6.15;5.43;;;;;;;;;;4990299;28;20054;-83
2021/06/18 07:13:17;;;;;;;6.15;5.13;;;;;;;;;;4981390;28;20049;-83
2021/06/18 07:15:45;;;;;;;9.02;5.47;;;;;;;;;;4985428;28;20051;-83
2021/06/18 07:18:12;;;;;;;8.32;4.93;;;;;;;;;;4983594;28;20133;-83
2021/06/18 07:20:38;;;;;;;6.30;5.70;;;;;;;;;;4982704;28;20050;-82
2021/06/18 07:23:05;;;;;;;7.93;6.15;;;;;;;;;;4984067;28;20043;-82
2021/06/18 07:25:33;;;;;;;10.07;5.43;;;;;;;;;;4987336;28;20047;-83
2021/06/18 07:28:00;;;;;;;6.80;4.65;;;;;;;;;;4982999;28;20069;-84
2021/06/18 07:30:26;;;;;;;7.78;4.60;;;;;;;;;;4984645;28;20043;-82
2021/06/18 07:32:53;;;;;;;5.90;5.22;;;;;;;;;;4981254;28;20062;-83
2021/06/18 07:35:19;;;;;;;8.80;4.57;;;;;;;;;;4985171;28;20050;-82
2021/06/18 07:37:46;;;;;;;9.18;4.43;;;;;;;;;;4986626;28;20055;-83
2021/06/18 07:40:14;;;;;;;5.70;4.68;;;;;;;;;;4983227;28;20131;-84
2021/06/18 07:42:42;;;;;;;5.88;4.93;;;;;;;;;;4991133;28;20053;-83
2021/06/18 07:45:10;;;;;;;7.47;4.75;;;;;;;;;;4989936;28;20513;-85
2021/06/18 07:47:38;;;;;;;7.03;4.78;;;;;;;;;;4997091;28;20045;-83
2021/06/18 07:50:06;;;;;;;6.82;4.68;;;;;;;;;;4996342;28;20065;-85
2021/06/18 07:52:32;;;;;;;6.43;4.78;;;;;;;;;;4992714;28;20046;-84
2021/06/18 07:55:00;;;;;;;7.13;5.47;;;;;;;;;;4994908;28;20050;-84
2021/06/18 07:57:27;;;;;;;7.85;4.88;;;;;;;;;;4990302;28;20093;-83
2021/06/18 07:59:55;;;;;;;5.93;4.47;;;;;;;;;;4998331;28;20058;-86
2021/06/18 08:02:21;;;;;;;7.00;5.10;;;;;;;;;;5001758;28;20078;-85
2021/06/18 08:04:48;;;;;;;7.20;5.00;;;;;;;;;;5005447;28;20472;-85
2021/06/18 08:07:14;;;;;;;6.47;4.75;;;;;;;;;;5005563;28;20060;-85
2021/06/18 08:09:41;;;;;;;6.00;5.07;;;;;;;;;;4997269;28;20046;-85
2021/06/18 08:12:09;;;;;;;8.00;5.28;;;;;;;;;;5004912;28;20046;-84
2021/06/18 08:14:35;;;;;;;5.93;5.05;;;;;;;;;;4999131;28;20795;-85
2021/06/18 08:17:04;;;;;;;6.68;5.28;;;;;;;;;;4992944;28;20053;-84
2021/06/18 08:19:30;;;;;;;10.23;5.57;;;;;;;;;;5000054;28;20067;-86
2021/06/18 08:21:57;;;;;;;13.13;4.93;;;;;;;;;;4992679;28;20061;-88
2021/06/18 08:24:23;;;;;;;7.70;4.35;;;;;;;;;;4993466;28;20050;-83
2021/06/18 08:26:50;;;;;;;8.63;4.60;;;;;;;;;;4992357;28;20054;-83
2021/06/18 08:29:17;;;;;;;5.70;4.60;;;;;;;;;;4995709;28;20039;-84
2021/06/18 08:31:43;;;;;;;7.00;5.32;;;;;;;;;;4992286;28;20042;-83
2021/06/18 08:34:11;;;;;;;9.60;4.97;;;;;;;;;;4990896;28;20042;-83
2021/06/18 08:36:39;;;;;;;6.35;5.47;;;;;;;;;;4990674;28;20050;-84
2021/06/18 08:39:06;;;;;;;7.13;4.63;;;;;;;;;;4984056;28;20077;-83
2021/06/18 08:41:33;;;;;;;6.50;4.82;;;;;;;;;;5000398;28;20487;-82
2021/06/18 08:43:59;;;;;;;8.65;5.40;;;;;;;;;;5001111;28;20051;-87
2021/06/18 08:46:26;;;;;;;11.90;5.03;;;;;;;;;;4999111;28;20046;-87
2021/06/18 08:48:52;;;;;;;10.27;4.40;;;;;;;;;;4994883;28;20043;-86
2021/06/18 08:51:21;;;;;;;8.10;4.47;;;;;;;;;;4992301;28;20046;-85
2021/06/18 08:53:48;;;;;;;6.22;4.43;;;;;;;;;;4998680;28;20051;-86
2021/06/18 08:56:14;;;;;;;6.57;5.10;;;;;;;;;;5009080;28;20053;-85
2021/06/18 08:58:41;;;;;;;6.28;5.38;;;;;;;;;;4996700;28;20035;-85
2021/06/18 09:01:08;;;;;;;6.55;4.90;;;;;;;;;;5011974;28;20042;-85
2021/06/18 09:03:36;;;;;;;5.68;4.60;;;;;;;;;;5012193;28;20052;-83
2021/06/18 09:06:04;;;;;;;6.22;4.35;;;;;;;;;;5001428;28;20046;-81
2021/06/18 09:08:31;;;;;;;7.07;4.40;;;;;;;;;;4994606;28;20491;-83
2021/06/18 09:10:58;;;;;;;8.27;4.85;;;;;;;;;;4996555;28;20068;-82
2021/06/18 09:13:30;;;;;;;6.20;4.90;;;;;;;;;;4995946;28;20099;-82
2021/06/18 09:15:58;;;;;;;9.18;4.90;;;;;;;;;;4989192;28;20049;-82
2021/06/18 09:18:33;;;;;;;8.57;4.40;;;;;;;;;;4997179;28;20054;-82
2021/06/18 09:21:29;;;;;;;5.85;4.30;;;;;;;;;;4989385;28;20456;-82
2021/06/18 09:23:57;;;;;;;6.15;4.43;;;;;;;;;;4917041;29;20172;-82
2021/06/18 09:26:29;;;;;;;6.22;4.25;;;;;;;;;;4975537;28;20051;-82
2021/06/18 09:29:05;;;;;;;17.65;4.80;;;;;;;;;;4995901;28;20052;-83
2021/06/18 09:31:33;;;;;;;6.50;4.63;;;;;;;;;;4996508;28;20050;-83
2021/06/18 09:34:01;;;;;;;10.10;4.45;;;;;;;;;;4997136;28;20046;-83
2021/06/18 09:36:28;;;;;;;9.43;4.43;;;;;;;;;;4998353;28;20483;-82
2021/06/18 09:38:56;;;;;;;5.50;3.92;;;;;;;;;;4998630;28;20046;-82
2021/06/18 09:41:38;;;;;;;5.15;4.07;;;;;;;;;;4997638;28;20504;-83
2021/06/18 09:44:07;;;;;;;8.55;4.35;;;;;;;;;;4987649;28;20058;-84
2021/06/18 09:46:41;;;;;;;10.38;3.90;;;;;;;;;;4994119;28;20154;-83
2021/06/18 09:49:08;;;;;;;8.25;4.13;;;;;;;;;;4998176;28;20056;-82
2021/06/18 09:51:53;;;;;;;7.10;3.85;;;;;;;;;;4985756;28;20070;-82
2021/06/18 09:54:21;;;;;;;24.92;4.75;;;;;;;;;;4993479;28;20412;-81
2021/06/18 09:56:48;;;;;;;8.18;4.07;;;;;;;;;;4996854;28;20050;-80
2021/06/18 09:59:21;;;;;;;3.95;3.50;;;;;;;;;;4996810;28;20074;-80
2021/06/18 10:01:52;;;;;;;8.40;3.88;;;;;;;;;;4995991;28;20046;-81
2021/06/18 10:04:19;;;;;;;6.47;3.83;;;;;;;;;;4996664;28;20089;-85
2021/06/18 10:06:46;;;;;;;6.22;3.72;;;;;;;;;;4999508;28;20054;-84
2021/06/18 10:09:14;;;;;;;6.60;3.30;;;;;;;;;;4998420;28;20125;-83
2021/06/18 10:11:45;;;;;;;6.38;3.10;;;;;;;;;;4996436;28;20074;-83
2021/06/18 10:14:12;;;;;;;8.73;4.13;;;;;;;;;;4995340;28;20080;-83
2021/06/18 10:16:39;;;;;;;6.80;3.78;;;;;;;;;;4976089;28;20513;-83
2021/06/18 10:19:05;;;;;;;3.80;3.38;;;;;;;;;;4977749;28;20053;-83
2021/06/18 10:21:36;;;;;;;4.63;3.47;;;;;;;;;;4989683;28;20054;-84
2021/06/18 10:24:10;;;;;;;19.92;4.80;;;;;;;;;;4999664;28;20518;-84
2021/06/18 10:26:37;;;;;;;8.13;3.60;;;;;;;;;;5000415;28;20115;-82
2021/06/18 10:29:05;;;;;;;6.93;3.75;;;;;;;;;;4997792;28;20069;-83
2021/06/18 10:31:35;;;;;;;4.78;3.50;;;;;;;;;;4998093;28;20491;-82
2021/06/18 10:34:07;;;;;;;9.50;3.55;;;;;;;;;;4996591;28;20391;-81
2021/06/18 10:36:33;;;;;;;5.97;3.10;;;;;;;;;;4995354;28;20046;-85
2021/06/18 10:39:20;;;;;;;7.65;2.67;;;;;;;;;;4997536;28;20141;-82
2021/06/18 10:41:48;;;;;;;4.82;2.90;;;;;;;;;;4997412;28;20073;-82
2021/06/18 10:44:50;;;;;;;20.80;4.65;;;;;;;;;;4996186;28;20054;-83
2021/06/18 10:47:54;;;;;;;4.10;3.03;;;;;;;;;;4990097;28;20050;-82
2021/06/18 10:50:48;;;;;;;3.03;2.55;;;;;;;;;;4987333;28;20042;-83
2021/06/18 10:53:25;;;;;;;5.88;2.67;;;;;;;;;;4998449;28;20054;-85
2021/06/18 10:55:55;;;;;;;14.65;3.40;;;;;;;;;;4997723;28;20057;-82
2021/06/18 10:58:22;;;;;;;18.30;3.45;;;;;;;;;;4999545;28;20084;-84
2021/06/18 11:00:49;;;;;;;4.80;2.40;;;;;;;;;;4997755;28;20046;-83
2021/06/18 11:03:18;;;;;;;8.70;2.47;;;;;;;;;;4998403;28;20062;-82
2021/06/18 11:05:46;;;;;;;3.95;2.47;;;;;;;;;;4998664;28;20050;-82
2021/06/18 11:08:20;;;;;;;3.63;2.75;;;;;;;;;;4998570;28;20758;-83
2021/06/18 11:10:48;;;;;;;4.70;2.42;;;;;;;;;;4998265;28;20050;-83
2021/06/18 11:13:17;;;;;;;3.70;2.78;;;;;;;;;;4992871;28;20062;-82
2021/06/18 11:15:46;;;;;;;3.22;2.35;;;;;;;;;;4988350;28;20146;-82
2021/06/18 11:18:18;;;;;;;5.88;2.42;;;;;;;;;;4982810;28;20456;-82
2021/06/18 11:20:56;;;;;;;3.80;3.00;;;;;;;;;;4995769;28;20069;-82
2021/06/18 11:23:27;;;;;;;4.53;2.53;;;;;;;;;;4987287;28;20070;-84
2021/06/18 11:26:02;;;;;;;6.25;2.80;;;;;;;;;;4983636;28;20426;-84
2021/06/18 11:28:40;;;;;;;3.35;2.58;;;;;;;;;;4986483;28;20060;-83
2021/06/18 11:31:09;;;;;;;5.95;2.70;;;;;;;;;;4980343;28;20050;-82
2021/06/18 11:33:57;;;;;;;5.07;2.63;;;;;;;;;;4977246;28;20054;-82
2021/06/18 11:36:48;;;;;;;6.78;2.63;;;;;;;;;;4976098;28;20051;-84
2021/06/18 11:39:21;;;;;;;5.57;2.47;;;;;;;;;;4975649;28;20090;-84
2021/06/18 11:41:50;;;;;;;4.25;2.85;;;;;;;;;;4976009;28;20397;-85
2021/06/18 11:44:33;;;;;;;4.50;2.92;;;;;;;;;;4979912;28;20149;-85
2021/06/18 11:47:02;;;;;;;4.18;2.45;;;;;;;;;;4977606;28;20069;-84
2021/06/18 11:49:33;;;;;;;4.00;2.50;;;;;;;;;;4976460;28;20113;-85
2021/06/18 11:52:12;;;;;;;5.72;2.78;;;;;;;;;;4975602;28;20114;-85
2021/06/18 11:54:43;;;;;;;4.75;2.92;;;;;;;;;;4991511;28;20050;-86
2021/06/18 11:57:12;;;;;;;3.97;2.65;;;;;;;;;;4994678;28;20050;-86
2021/06/18 11:59:41;;;;;;;5.05;2.42;;;;;;;;;;4995773;28;20042;-87
2021/06/18 12:02:22;;;;;;;4.45;2.40;;;;;;;;;;4997001;28;20042;-83
2021/06/18 12:05:00;;;;;;;6.50;2.88;;;;;;;;;;4979001;28;20752;-86
2021/06/18 12:07:31;;;;;;;5.68;2.42;;;;;;;;;;4977107;28;20054;-85
2021/06/18 12:10:02;;;;;;;10.45;3.30;;;;;;;;;;4975826;28;20057;-86
2021/06/18 12:12:29;;;;;;;4.47;2.55;;;;;;;;;;4977653;28;20050;-83
2021/06/18 12:14:57;;;;;;;9.40;2.80;;;;;;;;;;4975285;28;20047;-83
2021/06/18 12:17:24;;;;;;;3.90;2.72;;;;;;;;;;4975416;28;20483;-85
2021/06/18 12:19:50;;;;;;;24.58;4.68;;;;;;;;;;4975085;28;20049;-84
2021/06/18 12:22:18;;;;;;;9.85;2.95;;;;;;;;;;4975998;28;20078;-82
2021/06/18 12:24:46;;;;;;;12.10;3.30;;;;;;;;;;4990366;28;20047;-86
2021/06/18 12:27:16;;;;;;;6.07;2.85;;;;;;;;;;4994719;28;20046;-85
2021/06/18 12:29:44;;;;;;;6.13;2.75;;;;;;;;;;4995395;28;20047;-85
2021/06/18 12:32:13;;;;;;;5.28;2.55;;;;;;;;;;4995830;28;20046;-86
2021/06/18 12:34:47;;;;;;;3.35;2.20;;;;;;;;;;4994569;28;20050;-85
2021/06/18 12:37:13;;;;;;;7.53;2.88;;;;;;;;;;4996121;28;20050;-85
2021/06/18 12:39:51;;;;;;;5.15;2.38;;;;;;;;;;4998754;28;20050;-88
2021/06/18 12:42:27;;;;;;;3.83;2.35;;;;;;;;;;4999094;28;20498;-87
2021/06/18 12:45:08;;;;;;;5.03;2.58;;;;;;;;;;4999111;28;20129;-85
2021/06/18 12:47:36;;;;;;;5.45;2.50;;;;;;;;;;4998676;28;20502;-85
2021/06/18 12:50:22;;;;;;;6.57;2.60;;;;;;;;;;4998109;28;20141;-86
2021/06/18 12:52:50;;;;;;;6.97;2.40;;;;;;;;;;4999286;28;20508;-86
2021/06/18 12:55:25;;;;;;;3.33;2.35;;;;;;;;;;4999004;28;20141;-86
2021/06/18 12:58:07;;;;;;;13.13;2.92;;;;;;;;;;5002951;28;20050;-85
2021/06/18 13:00:42;;;;;;;3.88;2.60;;;;;;;;;;5000192;28;20136;-86
2021/06/18 13:03:10;;;;;;;6.70;2.70;;;;;;;;;;4992603;28;20050;-86
2021/06/18 13:05:37;;;;;;;5.90;2.75;;;;;;;;;;4989910;28;20061;-85
2021/06/18 13:08:16;;;;;;;11.60;3.00;;;;;;;;;;4999735;28;20062;-86
2021/06/18 13:10:43;;;;;;;6.53;2.53;;;;;;;;;;4999684;28;20046;-85
2021/06/18 13:13:23;;;;;;;4.85;3.00;;;;;;;;;;4997898;28;20449;-84
2021/06/18 13:15:50;;;;;;;7.85;3.08;;;;;;;;;;4997944;28;20046;-86
2021/06/18 13:18:17;;;;;;;11.63;3.13;;;;;;;;;;4997932;28;20137;-87
2021/06/18 13:20:45;;;;;;;5.57;2.70;;;;;;;;;;4997687;28;20046;-84
2021/06/18 13:23:26;;;;;;;4.28;2.53;;;;;;;;;;4996607;28;20046;-86
2021/06/18 13:26:03;;;;;;;4.57;2.70;;;;;;;;;;4999495;28;20052;-83
2021/06/18 13:28:40;;;;;;;7.95;2.72;;;;;;;;;;4999305;28;20053;-85
2021/06/18 13:31:07;;;;;;;10.00;2.90;;;;;;;;;;4999427;28;20410;-85
2021/06/18 13:33:38;;;;;;;7.47;2.80;;;;;;;;;;4998287;28;20062;-86
2021/06/18 13:36:05;;;;;;;8.32;2.70;;;;;;;;;;4989931;28;20047;-83
2021/06/18 13:38:32;;;;;;;20.27;3.88;;;;;;;;;;4978403;28;20053;-85
2021/06/18 13:41:04;;;;;;;9.00;2.63;;;;;;;;;;4977677;28;20507;-86
2021/06/18 13:43:31;;;;;;;5.45;2.30;;;;;;;;;;4997833;28;20054;-86
2021/06/18 13:45:59;;;;;;;4.72;2.30;;;;;;;;;;4998717;28;20053;-85
2021/06/18 13:48:26;;;;;;;3.85;2.20;;;;;;;;;;4998389;28;20050;-85
2021/06/18 13:50:53;;;;;;;3.42;2.20;;;;;;;;;;4998256;28;20046;-86
2021/06/18 13:53:20;;;;;;;3.13;2.03;;;;;;;;;;4997003;28;20050;-86
2021/06/18 13:55:52;;;;;;;4.45;2.17;;;;;;;;;;4991476;28;20070;-85
2021/06/18 13:58:19;;;;;;;4.60;2.85;;;;;;;;;;4988611;28;20086;-85
2021/06/18 14:00:45;;;;;;;4.28;2.53;;;;;;;;;;4995423;28;20046;-85
2021/06/18 14:03:13;;;;;;;4.25;2.55;;;;;;;;;;4994845;28;20133;-85
2021/06/18 14:05:40;;;;;;;7.85;2.63;;;;;;;;;;4997719;28;20406;-85
2021/06/18 14:08:06;;;;;;;4.32;2.40;;;;;;;;;;4996136;28;20081;-86
2021/06/18 14:10:33;;;;;;;3.10;2.38;;;;;;;;;;4995458;28;20124;-86
2021/06/18 14:12:59;;;;;;;4.32;2.40;;;;;;;;;;4995796;28;20078;-85
2021/06/18 14:15:28;;;;;;;4.22;2.40;;;;;;;;;;4993207;28;20498;-86
2021/06/18 14:17:55;;;;;;;5.45;2.58;;;;;;;;;;4989112;28;20062;-86
2021/06/18 14:20:22;;;;;;;3.97;2.85;;;;;;;;;;4988150;28;20412;-85
2021/06/18 14:22:49;;;;;;;3.80;2.15;;;;;;;;;;4975851;28;20057;-84
2021/06/18 14:25:15;;;;;;;3.05;1.95;;;;;;;;;;4983314;28;20053;-85
2021/06/18 14:27:42;;;;;;;3.95;2.40;;;;;;;;;;4994808;28;20054;-85
2021/06/18 14:30:10;;;;;;;5.03;2.60;;;;;;;;;;4994099;28;20050;-86
2021/06/18 14:32:37;;;;;;;9.32;2.75;;;;;;;;;;4995352;28;20526;-86
2021/06/18 14:35:06;;;;;;;5.43;2.45;;;;;;;;;;4994404;28;20066;-85
2021/06/18 14:37:34;;;;;;;3.75;2.22;;;;;;;;;;4989135;28;20057;-85
2021/06/18 14:40:01;;;;;;;4.68;2.33;;;;;;;;;;4991931;28;20058;-86
2021/06/18 14:42:28;;;;;;;5.15;2.08;;;;;;;;;;4994294;28;20411;-85
2021/06/18 14:44:54;;;;;;;7.78;2.60;;;;;;;;;;4994333;28;20319;-87
2021/06/18 14:47:21;;;;;;;7.13;2.50;;;;;;;;;;4995277;28;20491;-85
2021/06/18 14:49:47;;;;;;;8.75;2.53;;;;;;;;;;4995533;28;20050;-85
2021/06/18 14:52:13;;;;;;;4.72;2.95;;;;;;;;;;4995604;28;20064;-85